createdAt,value
2022-12-12T00:00:58.637Z,70.70
2022-12-12T00:03:29.828Z,70.80
2022-12-12T00:05:56.728Z,71.60
2022-12-12T00:08:23.651Z,71.90
2022-12-12T00:10:50.771Z,72.40
2022-12-12T00:13:17.566Z,72.60
2022-12-12T00:15:44.383Z,72.70
2022-12-12T00:18:11.285Z,72.80
2022-12-12T00:20:38.082Z,73.00
2022-12-12T00:23:05.143Z,73.00
2022-12-12T00:25:32.056Z,73.10
2022-12-12T00:28:00.473Z,72.60
2022-12-12T00:30:27.306Z,72.40
2022-12-12T00:32:54.194Z,72.60
2022-12-12T00:35:20.943Z,72.00
2022-12-12T00:37:47.780Z,72.40
2022-12-12T00:40:14.584Z,72.60
2022-12-12T00:42:41.467Z,73.10
2022-12-12T00:45:08.730Z,73.30
2022-12-12T00:47:36.458Z,73.60
2022-12-12T00:50:03.332Z,74.00
2022-12-12T00:52:30.207Z,74.30
2022-12-12T00:54:57.913Z,74.00
2022-12-12T00:57:27.166Z,74.10
2022-12-12T00:59:53.941Z,74.10
2022-12-12T01:02:26.404Z,74.60
2022-12-12T01:04:54.924Z,74.30
2022-12-12T01:07:22.086Z,74.20
2022-12-12T01:09:48.953Z,74.30
2022-12-12T01:12:15.859Z,74.10
2022-12-12T01:14:42.724Z,73.90
2022-12-12T01:17:09.530Z,74.20
2022-12-12T01:19:36.369Z,74.10
2022-12-12T01:22:03.141Z,74.20
2022-12-12T01:24:29.922Z,74.30
2022-12-12T01:26:56.761Z,74.40
2022-12-12T01:29:23.772Z,74.40
2022-12-12T01:31:51.261Z,74.20
2022-12-12T01:34:18.174Z,74.00
2022-12-12T01:36:45.018Z,74.60
2022-12-12T01:39:11.898Z,74.60
2022-12-12T01:41:38.766Z,74.30
2022-12-12T01:44:32.209Z,74.30
2022-12-12T01:46:59.072Z,74.40
2022-12-12T01:49:27.486Z,74.60
2022-12-12T01:51:58.676Z,74.60
2022-12-12T01:54:34.192Z,74.80
2022-12-12T01:57:05.767Z,74.40
2022-12-12T01:59:34.077Z,74.30
2022-12-12T02:02:01.327Z,73.90
2022-12-12T02:04:28.821Z,74.10
2022-12-12T02:06:57.107Z,74.40
2022-12-12T02:09:25.434Z,74.20
2022-12-12T02:11:55.038Z,74.50
2022-12-12T02:14:30.117Z,74.80
2022-12-12T02:17:21.025Z,75.10
2022-12-12T02:20:06.389Z,75.00
2022-12-12T02:23:03.086Z,75.40
2022-12-12T02:25:57.898Z,75.60
2022-12-12T02:28:24.601Z,75.80
2022-12-12T02:31:35.795Z,75.70
2022-12-12T02:34:09.617Z,76.00
2022-12-12T02:37:07.712Z,76.40
2022-12-12T02:39:51.952Z,76.20
2022-12-12T02:42:41.989Z,76.50
2022-12-12T02:45:34.832Z,76.60
2022-12-12T02:48:27.964Z,77.00
2022-12-12T02:50:58.573Z,76.80
2022-12-12T02:53:25.428Z,76.90
2022-12-12T02:56:29.586Z,77.10
2022-12-12T02:58:56.616Z,76.70
2022-12-12T03:02:03.112Z,77.00
2022-12-12T03:05:13.277Z,76.50
2022-12-12T03:07:49.608Z,76.70
2022-12-12T03:10:47.291Z,76.10
2022-12-12T03:13:38.018Z,75.70
2022-12-12T03:16:26.335Z,75.60
2022-12-12T03:19:20.752Z,75.20
2022-12-12T03:21:59.254Z,75.30
2022-12-12T03:24:49.241Z,75.20
2022-12-12T03:27:27.114Z,75.10
2022-12-12T03:30:07.208Z,75.00
2022-12-12T03:32:40.845Z,74.90
2022-12-12T03:35:14.928Z,75.00
2022-12-12T03:37:50.967Z,74.90
2022-12-12T03:40:24.984Z,75.10
2022-12-12T03:43:07.007Z,75.10
2022-12-12T03:45:56.514Z,74.90
2022-12-12T03:48:30.742Z,74.80
2022-12-12T03:51:17.046Z,75.10
2022-12-12T03:53:54.382Z,75.00
2022-12-12T03:56:33.028Z,74.90
2022-12-12T03:59:07.785Z,75.10
2022-12-12T04:01:48.253Z,75.10
2022-12-12T04:04:21.492Z,74.90
2022-12-12T04:06:56.833Z,75.10
2022-12-12T04:09:43.085Z,74.70
2022-12-12T04:12:53.841Z,75.00
2022-12-12T04:15:35.416Z,74.80
2022-12-12T04:18:37.367Z,74.80
2022-12-12T04:21:41.195Z,74.90
2022-12-12T04:24:38.106Z,75.10
2022-12-12T04:27:13.170Z,75.10
2022-12-12T04:29:49.239Z,74.60
2022-12-12T04:32:29.888Z,74.60
2022-12-12T04:34:58.891Z,74.60
2022-12-12T04:37:40.929Z,74.70
2022-12-12T04:40:12.114Z,74.40
2022-12-12T04:42:46.732Z,74.00
2022-12-12T04:45:21.736Z,74.40
2022-12-12T04:47:52.344Z,74.00
2022-12-12T04:50:22.443Z,73.80
2022-12-12T04:52:53.331Z,73.50
2022-12-12T04:55:29.637Z,73.50
2022-12-12T04:57:56.528Z,73.10
2022-12-12T05:00:25.409Z,73.10
2022-12-12T05:03:10.265Z,72.80
2022-12-12T05:06:05.540Z,73.30
2022-12-12T05:08:48.751Z,72.90
2022-12-12T05:11:19.125Z,72.90
2022-12-12T05:13:46.047Z,73.20
2022-12-12T05:16:24.651Z,73.30
2022-12-12T05:18:51.577Z,73.20
2022-12-12T05:21:19.570Z,73.60
2022-12-12T05:23:46.542Z,73.80
2022-12-12T05:26:27.041Z,73.90
2022-12-12T05:28:54.108Z,73.80
2022-12-12T05:31:21.521Z,73.40
2022-12-12T05:33:48.818Z,73.50
2022-12-12T05:36:16.299Z,74.10
2022-12-12T05:38:44.934Z,74.10
2022-12-12T05:41:12.057Z,74.20
2022-12-12T05:43:39.146Z,74.50
2022-12-12T05:46:06.783Z,74.50
2022-12-12T05:48:34.234Z,74.50
2022-12-12T05:51:02.359Z,74.10
2022-12-12T05:53:29.673Z,73.90
2022-12-12T05:55:56.612Z,73.90
2022-12-12T05:58:23.657Z,73.90
2022-12-12T06:00:51.472Z,73.70
2022-12-12T06:03:18.639Z,73.80
2022-12-12T06:05:45.477Z,73.50
2022-12-12T06:08:12.452Z,73.50
2022-12-12T06:10:39.396Z,73.40
2022-12-12T06:13:06.269Z,73.30
2022-12-12T06:15:33.269Z,73.50
2022-12-12T06:18:00.205Z,73.60
2022-12-12T06:20:27.065Z,73.50
2022-12-12T06:22:54.171Z,73.80
2022-12-12T06:25:21.334Z,73.40
2022-12-12T06:27:48.232Z,73.60
2022-12-12T06:30:15.184Z,73.30
2022-12-12T06:32:42.673Z,73.20
2022-12-12T06:35:10.448Z,73.40
2022-12-12T06:37:38.597Z,73.50
2022-12-12T06:40:06.324Z,73.30
2022-12-12T06:42:33.199Z,73.30
2022-12-12T06:45:00.083Z,73.40
2022-12-12T06:47:26.960Z,73.50
2022-12-12T06:49:53.749Z,73.70
2022-12-12T06:52:20.529Z,73.50
2022-12-12T06:54:47.448Z,73.20
2022-12-12T06:57:14.426Z,73.60
2022-12-12T06:59:41.317Z,73.20
2022-12-12T07:02:11.110Z,73.70
2022-12-12T07:04:37.958Z,73.80
2022-12-12T07:07:04.849Z,74.30
2022-12-12T07:09:31.807Z,73.90
2022-12-12T07:11:58.638Z,74.10
2022-12-12T07:14:25.549Z,74.00
2022-12-12T07:16:52.401Z,74.20
2022-12-12T07:19:19.258Z,74.00
2022-12-12T07:21:47.172Z,74.00
2022-12-12T07:24:15.754Z,74.10
2022-12-12T07:26:42.626Z,74.20
2022-12-12T07:29:09.461Z,74.30
2022-12-12T07:31:36.321Z,74.20
2022-12-12T07:34:03.456Z,74.20
2022-12-12T07:36:30.337Z,73.90
2022-12-12T07:38:57.758Z,74.00
2022-12-12T07:41:24.687Z,73.90
2022-12-12T07:43:52.421Z,73.90
2022-12-12T07:46:24.824Z,74.00
2022-12-12T07:48:53.154Z,74.20
2022-12-12T07:51:20.624Z,73.60
2022-12-12T07:53:47.869Z,73.70
2022-12-12T07:56:16.360Z,73.80
2022-12-12T07:58:43.866Z,73.60
2022-12-12T08:01:16.883Z,73.40
2022-12-12T08:03:45.534Z,74.00
2022-12-12T08:06:13.128Z,74.10
2022-12-12T08:08:40.166Z,74.00
2022-12-12T08:11:08.735Z,73.20
2022-12-12T08:13:37.601Z,72.60
2022-12-12T08:16:07.041Z,72.30
2022-12-12T08:18:34.567Z,71.90
2022-12-12T08:21:01.407Z,71.80
2022-12-12T08:23:28.461Z,71.40
2022-12-12T08:25:55.359Z,71.20
2022-12-12T08:28:22.254Z,71.60
2022-12-12T08:30:50.730Z,70.40
2022-12-12T08:33:18.115Z,69.90
2022-12-12T08:35:45.215Z,70.00
2022-12-12T08:38:12.179Z,69.90
2022-12-12T08:40:39.449Z,70.40
2022-12-12T08:43:06.423Z,70.10
2022-12-12T08:45:33.342Z,69.90
2022-12-12T08:48:00.121Z,70.30
2022-12-12T08:50:26.940Z,68.80
2022-12-12T08:52:54.449Z,69.30
2022-12-12T08:55:21.549Z,69.20
2022-12-12T08:57:48.410Z,69.80
2022-12-12T09:00:15.789Z,70.00
2022-12-12T09:02:43.132Z,70.30
2022-12-12T09:05:11.094Z,70.30
2022-12-12T09:07:38.254Z,70.70
2022-12-12T09:10:06.411Z,70.90
2022-12-12T09:12:36.966Z,70.90
2022-12-12T09:15:09.151Z,71.10
2022-12-12T09:17:35.992Z,70.70
2022-12-12T09:20:03.555Z,70.60
2022-12-12T09:22:30.401Z,70.20
2022-12-12T09:24:57.191Z,69.80
2022-12-12T09:27:23.999Z,69.50
2022-12-12T09:29:50.879Z,69.00
2022-12-12T09:32:22.758Z,68.80
2022-12-12T09:34:51.418Z,68.70
2022-12-12T09:37:18.225Z,69.20
2022-12-12T09:39:45.005Z,69.00
2022-12-12T09:42:27.906Z,69.10
2022-12-12T09:45:01.821Z,69.10
2022-12-12T09:47:42.983Z,69.10
2022-12-12T09:50:24.755Z,68.80
2022-12-12T09:52:52.696Z,69.40
2022-12-12T09:55:53.309Z,69.80
2022-12-12T09:58:23.698Z,69.80
2022-12-12T10:01:01.126Z,70.10
2022-12-12T10:04:01.871Z,69.80
2022-12-12T10:06:41.704Z,70.00
2022-12-12T10:09:20.296Z,69.50
2022-12-12T10:11:50.753Z,69.40
2022-12-12T10:14:38.621Z,69.10
2022-12-12T10:17:40.565Z,69.10
2022-12-12T10:20:25.948Z,69.10
2022-12-12T10:23:02.614Z,69.20
2022-12-12T10:25:42.672Z,68.30
2022-12-12T10:28:16.348Z,67.80
2022-12-12T10:30:55.240Z,66.60
2022-12-12T10:33:28.090Z,66.50
2022-12-12T10:36:11.309Z,66.20
2022-12-12T10:39:28.938Z,66.70
2022-12-12T10:42:26.157Z,66.50
2022-12-12T10:45:15.013Z,66.10
2022-12-12T10:47:42.048Z,65.30
2022-12-12T10:50:20.434Z,65.60
2022-12-12T10:52:47.264Z,66.10
2022-12-12T10:55:35.521Z,65.00
2022-12-12T10:58:04.340Z,64.90
2022-12-12T11:00:36.379Z,63.80
2022-12-12T11:03:28.489Z,63.80
2022-12-12T11:05:56.961Z,64.00
2022-12-12T11:08:36.527Z,62.80
2022-12-12T11:11:19.793Z,61.90
2022-12-12T11:13:55.023Z,62.50
2022-12-12T11:16:43.065Z,61.50
2022-12-12T11:19:25.054Z,61.10
2022-12-12T11:21:54.902Z,61.20
2022-12-12T11:24:27.533Z,60.30
2022-12-12T11:27:23.073Z,60.80
2022-12-12T11:29:54.426Z,60.70
2022-12-12T11:32:28.974Z,60.30
2022-12-12T11:35:02.018Z,59.80
2022-12-12T11:37:45.324Z,59.30
2022-12-12T11:40:34.106Z,59.30
2022-12-12T11:43:25.227Z,60.00
2022-12-12T11:46:06.005Z,61.20
2022-12-12T11:48:55.097Z,60.60
2022-12-12T11:51:45.754Z,59.80
2022-12-12T11:54:26.763Z,60.00
2022-12-12T11:56:57.674Z,58.90
2022-12-12T11:59:30.514Z,58.30
2022-12-12T12:02:14.995Z,58.40
2022-12-12T12:04:52.885Z,60.00
2022-12-12T12:07:51.794Z,60.90
2022-12-12T12:10:29.858Z,61.80
2022-12-12T12:13:21.545Z,62.50
2022-12-12T12:16:04.129Z,63.00
2022-12-12T12:18:59.059Z,63.40
2022-12-12T12:21:41.265Z,63.70
2022-12-12T12:24:10.925Z,63.40
2022-12-12T12:27:16.800Z,63.70
2022-12-12T12:29:46.635Z,63.80
2022-12-12T12:32:28.813Z,64.30
2022-12-12T12:35:08.012Z,64.60
2022-12-12T12:37:55.090Z,64.30
2022-12-12T12:40:44.562Z,63.80
2022-12-12T12:43:45.502Z,64.30
2022-12-12T12:46:18.638Z,63.40
2022-12-12T12:48:53.567Z,63.80
2022-12-12T12:51:50.812Z,63.70
2022-12-12T12:54:28.402Z,63.80
2022-12-12T12:57:13.487Z,63.40
2022-12-12T12:59:56.273Z,63.60
2022-12-12T13:02:55.381Z,63.70
2022-12-12T13:05:44.594Z,63.90
2022-12-12T13:08:47.663Z,63.50
2022-12-12T13:11:35.421Z,63.40
2022-12-12T13:14:40.955Z,63.30
2022-12-12T13:17:16.954Z,63.70
2022-12-12T13:19:48.721Z,63.10
2022-12-12T13:22:21.501Z,63.00
2022-12-12T13:25:36.482Z,63.70
2022-12-12T13:28:11.669Z,63.70
2022-12-12T13:30:38.503Z,64.10
2022-12-12T13:33:11.766Z,63.70
2022-12-12T13:35:46.138Z,63.80
2022-12-12T13:38:23.321Z,63.90
2022-12-12T13:41:06.344Z,63.80
2022-12-12T13:43:42.853Z,63.70
2022-12-12T13:46:21.475Z,63.50
2022-12-12T13:48:54.243Z,64.00
2022-12-12T13:51:34.692Z,63.50
2022-12-12T13:54:12.636Z,64.00
2022-12-12T13:56:57.200Z,64.20
2022-12-12T13:59:25.393Z,64.10
2022-12-12T14:02:35.140Z,64.10
2022-12-12T14:05:10.862Z,64.10
2022-12-12T14:07:38.638Z,64.60
2022-12-12T14:10:32.619Z,65.90
2022-12-12T14:13:16.075Z,65.10
2022-12-12T14:15:45.486Z,65.40
2022-12-12T14:18:29.774Z,65.80
2022-12-12T14:21:02.630Z,65.60
2022-12-12T14:23:42.134Z,66.60
2022-12-12T14:26:32.639Z,65.80
2022-12-12T14:29:20.270Z,66.20
2022-12-12T14:31:55.932Z,66.50
2022-12-12T14:34:47.321Z,66.10
2022-12-12T14:37:38.868Z,66.60
2022-12-12T14:40:45.897Z,66.80
2022-12-12T14:43:22.003Z,66.90
2022-12-12T14:45:49.532Z,66.90
2022-12-12T14:48:19.199Z,67.60
2022-12-12T14:50:58.186Z,67.80
2022-12-12T14:53:41.021Z,67.60
2022-12-12T14:56:11.385Z,67.80
2022-12-12T14:58:42.769Z,68.20
2022-12-12T15:01:10.178Z,68.10
2022-12-12T15:03:49.709Z,67.80
2022-12-12T15:06:56.398Z,67.70
2022-12-12T15:09:33.136Z,67.80
2022-12-12T15:12:16.653Z,67.50
2022-12-12T15:14:49.875Z,67.60
2022-12-12T15:17:31.417Z,67.60
2022-12-12T15:20:09.996Z,67.40
2022-12-12T15:22:48.422Z,67.20
2022-12-12T15:25:25.604Z,67.50
2022-12-12T15:27:56.347Z,68.10
2022-12-12T15:30:40.516Z,68.20
2022-12-12T15:33:17.444Z,67.90
2022-12-12T15:36:05.062Z,67.80
2022-12-12T15:38:33.546Z,68.70
2022-12-12T15:41:06.686Z,68.20
2022-12-12T15:43:37.410Z,68.60
2022-12-12T15:46:16.072Z,68.80
2022-12-12T15:48:44.350Z,69.40
2022-12-12T15:51:12.249Z,69.50
2022-12-12T15:53:41.288Z,69.70
2022-12-12T15:56:10.396Z,69.40
2022-12-12T15:58:46.081Z,69.70
2022-12-12T16:01:24.847Z,69.80
2022-12-12T16:04:02.907Z,70.20
2022-12-12T16:06:30.940Z,70.40
2022-12-12T16:09:18.108Z,70.70
2022-12-12T16:12:03.510Z,70.80
2022-12-12T16:14:40.623Z,70.90
2022-12-12T16:17:23.937Z,71.60
2022-12-12T16:20:10.277Z,71.10
2022-12-12T16:22:47.131Z,71.10
2022-12-12T16:25:28.911Z,71.70
2022-12-12T16:28:26.900Z,71.20
2022-12-12T16:31:02.817Z,71.30
2022-12-12T16:33:35.737Z,71.70
2022-12-12T16:36:08.610Z,72.60
2022-12-12T16:38:36.096Z,72.40
2022-12-12T16:41:10.921Z,72.40
2022-12-12T16:43:39.221Z,72.70
2022-12-12T16:46:11.372Z,72.70
2022-12-12T16:48:39.061Z,72.80
2022-12-12T16:51:08.469Z,72.50
2022-12-12T16:53:36.338Z,73.00
2022-12-12T16:56:04.030Z,73.00
2022-12-12T16:58:30.943Z,72.70
2022-12-12T17:00:59.972Z,73.00
2022-12-12T17:03:27.037Z,72.70
2022-12-12T17:05:53.814Z,73.10
2022-12-12T17:08:20.790Z,73.00
2022-12-12T17:10:49.485Z,73.20
2022-12-12T17:13:19.129Z,73.60
2022-12-12T17:15:47.255Z,73.80
2022-12-12T17:18:14.074Z,73.70
2022-12-12T17:20:41.019Z,74.10
2022-12-12T17:23:29.522Z,74.50
2022-12-12T17:26:02.891Z,74.40
2022-12-12T17:28:30.628Z,74.50
2022-12-12T17:30:57.429Z,74.20
2022-12-12T17:33:24.346Z,74.50
2022-12-12T17:36:02.423Z,74.50
2022-12-12T17:38:30.589Z,74.60
2022-12-12T17:40:58.401Z,75.00
2022-12-12T17:43:25.881Z,74.70
2022-12-12T17:46:00.205Z,75.00
2022-12-12T17:48:31.552Z,75.30
2022-12-12T17:51:00.602Z,75.30
2022-12-12T17:53:32.452Z,75.60
2022-12-12T17:56:01.648Z,75.30
2022-12-12T17:58:36.872Z,75.20
2022-12-12T18:01:31.621Z,74.80
2022-12-12T18:04:00.373Z,74.80
2022-12-12T18:06:31.653Z,74.80
2022-12-12T18:08:58.989Z,75.00
2022-12-12T18:11:28.656Z,75.20
2022-12-12T18:13:57.959Z,75.00
2022-12-12T18:16:25.324Z,75.10
2022-12-12T18:18:52.937Z,75.20
2022-12-12T18:24:12.266Z,75.40
2022-12-12T18:26:39.521Z,75.60
2022-12-12T18:29:08.540Z,75.80
2022-12-12T18:31:35.910Z,75.70
2022-12-12T18:34:03.515Z,75.70
2022-12-12T18:36:31.521Z,75.30
2022-12-12T18:39:00.530Z,74.70
2022-12-12T18:41:29.045Z,75.00
2022-12-12T18:43:55.975Z,74.80
2022-12-12T18:46:24.766Z,75.10
2022-12-12T18:48:52.134Z,74.90
2022-12-12T18:51:24.566Z,75.40
2022-12-12T18:53:54.632Z,74.90
2022-12-12T18:56:26.539Z,75.40
2022-12-12T18:58:54.656Z,75.10
2022-12-12T19:01:25.515Z,75.20
2022-12-12T19:03:53.967Z,75.40
2022-12-12T19:06:23.824Z,75.00
2022-12-12T19:08:50.784Z,75.10
2022-12-12T19:11:17.873Z,74.70
2022-12-12T19:13:48.198Z,74.70
2022-12-12T19:16:18.662Z,75.00
2022-12-12T19:18:46.033Z,75.00
2022-12-12T19:21:22.681Z,75.30
2022-12-12T19:23:50.406Z,74.90
2022-12-12T19:26:26.928Z,75.20
2022-12-12T19:29:06.635Z,75.30
2022-12-12T19:31:35.852Z,75.20
2022-12-12T19:34:04.336Z,75.00
2022-12-12T19:36:32.082Z,74.90
2022-12-12T19:39:00.029Z,74.90
2022-12-12T19:41:28.137Z,74.80
2022-12-12T19:44:01.487Z,75.00
2022-12-12T19:46:31.072Z,75.00
2022-12-12T19:49:02.823Z,75.40
2022-12-12T19:51:32.910Z,75.20
2022-12-12T19:54:00.929Z,75.30
2022-12-12T19:56:30.968Z,75.60
2022-12-12T19:58:58.426Z,75.90
2022-12-12T20:01:31.264Z,75.70
2022-12-12T20:04:30.312Z,75.70
2022-12-12T20:06:57.622Z,75.60
2022-12-12T20:09:27.683Z,75.40
2022-12-12T20:11:56.149Z,75.30
2022-12-12T20:14:25.689Z,75.10
2022-12-12T20:16:54.201Z,75.20
2022-12-12T20:19:22.213Z,75.20
2022-12-12T20:22:05.931Z,74.80
2022-12-12T20:24:34.027Z,74.40
2022-12-12T20:27:03.670Z,74.80
2022-12-12T20:29:31.377Z,74.90
2022-12-12T20:31:59.917Z,75.10
2022-12-12T20:34:27.884Z,74.90
2022-12-12T20:36:57.412Z,74.60
2022-12-12T20:39:25.959Z,74.80
2022-12-12T20:41:54.658Z,74.90
2022-12-12T20:44:23.363Z,74.50
2022-12-12T20:46:50.251Z,74.60
2022-12-12T20:49:22.086Z,74.50
2022-12-12T20:51:56.455Z,74.50
2022-12-12T20:54:25.087Z,73.90
2022-12-12T20:56:53.396Z,74.10
2022-12-12T20:59:20.365Z,74.00
2022-12-12T21:01:47.753Z,73.80
2022-12-12T21:04:15.352Z,74.10
2022-12-12T21:06:44.632Z,73.40
2022-12-12T21:09:16.194Z,73.60
2022-12-12T21:11:46.471Z,74.00
2022-12-12T21:14:13.356Z,74.30
2022-12-12T21:16:41.070Z,74.00
2022-12-12T21:19:11.423Z,74.00
2022-12-12T21:21:43.182Z,74.20
2022-12-12T21:24:14.979Z,74.00
2022-12-12T21:26:42.001Z,73.80
2022-12-12T21:29:09.081Z,73.90
2022-12-12T21:31:38.970Z,73.50
2022-12-12T21:34:06.910Z,73.60
2022-12-12T21:36:34.785Z,74.10
2022-12-12T21:39:05.877Z,73.60
2022-12-12T21:41:34.029Z,74.10
2022-12-12T21:44:00.983Z,73.80
2022-12-12T21:46:29.370Z,73.90
2022-12-12T21:49:15.884Z,74.10
2022-12-12T21:51:43.244Z,73.80
2022-12-12T21:54:11.497Z,73.60
2022-12-12T21:56:38.992Z,73.90
2022-12-12T21:59:06.317Z,73.90
2022-12-12T22:01:33.519Z,73.60
2022-12-12T22:04:01.311Z,73.40
2022-12-12T22:06:31.347Z,73.50
2022-12-12T22:09:00.155Z,73.40
2022-12-12T22:11:40.061Z,73.60
2022-12-12T22:14:10.433Z,73.50
2022-12-12T22:16:38.438Z,73.70
2022-12-12T22:19:08.440Z,73.20
2022-12-12T22:21:35.710Z,73.40
2022-12-12T22:24:03.535Z,73.10
2022-12-12T22:26:33.710Z,73.30
2022-12-12T22:29:03.062Z,73.40
2022-12-12T22:31:32.127Z,73.20
2022-12-12T22:34:04.466Z,73.60
2022-12-12T22:36:34.174Z,73.20
2022-12-12T22:39:01.972Z,73.40
2022-12-12T22:41:29.805Z,72.80
2022-12-12T22:44:01.360Z,72.70
2022-12-12T22:46:29.497Z,72.80
2022-12-12T22:48:59.245Z,72.60
2022-12-12T22:51:28.585Z,73.10
2022-12-12T22:53:56.882Z,72.60
2022-12-12T22:56:24.361Z,72.30
2022-12-12T22:58:51.357Z,72.50
2022-12-12T23:01:20.024Z,72.30
2022-12-12T23:03:47.237Z,72.80
2022-12-12T23:06:23.542Z,72.60
2022-12-12T23:08:59.588Z,72.30
2022-12-12T23:11:29.126Z,71.90
2022-12-12T23:14:06.603Z,72.00
2022-12-12T23:16:35.681Z,71.70
2022-12-12T23:19:07.331Z,71.60
2022-12-12T23:21:36.256Z,71.60
2022-12-12T23:24:04.871Z,72.30
2022-12-12T23:26:34.213Z,72.20
2022-12-12T23:29:01.357Z,72.20
2022-12-12T23:31:34.097Z,72.00
2022-12-12T23:34:04.347Z,71.80
2022-12-12T23:36:31.716Z,72.10
2022-12-12T23:39:00.831Z,72.60
2022-12-12T23:41:28.284Z,72.50
2022-12-12T23:43:55.528Z,72.60
2022-12-12T23:46:28.799Z,73.20
2022-12-12T23:49:06.081Z,73.10
2022-12-12T23:51:35.915Z,73.30
2022-12-12T23:54:04.944Z,74.00
2022-12-12T23:56:31.901Z,73.70
2022-12-12T23:58:59.562Z,73.70
